sensor_id;sensor_type;location;lat;lon;timestamp;pressure;altitude;pressure_sealevel;temperature;humidity
19590;BME280;12231;42.782;23.388;2022-07-23T00:00:57;95781.44;;;24.52;54.89
19590;BME280;12231;42.782;23.388;2022-07-23T00:03:22;95779.63;;;24.45;54.85
19590;BME280;12231;42.782;23.388;2022-07-23T00:05:48;95786.06;;;24.50;55.27
19590;BME280;12231;42.782;23.388;2022-07-23T00:08:14;95789.00;;;24.55;54.75
19590;BME280;12231;42.782;23.388;2022-07-23T00:10:39;95783.56;;;24.57;54.96
19590;BME280;12231;42.782;23.388;2022-07-23T00:13:04;95787.56;;;24.45;55.44
19590;BME280;12231;42.782;23.388;2022-07-23T00:15:30;95791.84;;;24.46;55.77
19590;BME280;12231;42.782;23.388;2022-07-23T00:17:55;95788.56;;;24.44;55.40
19590;BME280;12231;42.782;23.388;2022-07-23T00:20:21;95781.97;;;24.39;55.63
19590;BME280;12231;42.782;23.388;2022-07-23T00:22:52;95790.72;;;24.32;55.35
19590;BME280;12231;42.782;23.388;2022-07-23T00:25:19;95787.59;;;24.36;55.45
19590;BME280;12231;42.782;23.388;2022-07-23T00:27:44;95786.13;;;24.34;55.49
19590;BME280;12231;42.782;23.388;2022-07-23T00:30:10;95788.59;;;24.35;55.90
19590;BME280;12231;42.782;23.388;2022-07-23T00:32:57;95788.63;;;24.27;55.88
19590;BME280;12231;42.782;23.388;2022-07-23T00:35:28;95793.38;;;24.32;55.42
19590;BME280;12231;42.782;23.388;2022-07-23T00:37:54;95796.09;;;24.00;55.78
19590;BME280;12231;42.782;23.388;2022-07-23T00:40:20;95794.91;;;23.94;55.42
19590;BME280;12231;42.782;23.388;2022-07-23T00:42:45;95794.97;;;23.78;56.42
19590;BME280;12231;42.782;23.388;2022-07-23T00:45:11;95789.69;;;23.70;56.34
19590;BME280;12231;42.782;23.388;2022-07-23T00:47:37;95799.41;;;23.62;56.45
19590;BME280;12231;42.782;23.388;2022-07-23T00:50:04;95787.91;;;23.63;56.42
19590;BME280;12231;42.782;23.388;2022-07-23T00:52:30;95797.78;;;23.53;56.66
19590;BME280;12231;42.782;23.388;2022-07-23T00:54:56;95794.00;;;23.55;56.55
19590;BME280;12231;42.782;23.388;2022-07-23T00:57:22;95798.63;;;23.61;56.94
19590;BME280;12231;42.782;23.388;2022-07-23T00:59:49;95804.00;;;23.60;57.01
19590;BME280;12231;42.782;23.388;2022-07-23T01:02:14;95797.94;;;23.59;56.84
19590;BME280;12231;42.782;23.388;2022-07-23T01:04:40;95811.44;;;23.64;56.72
19590;BME280;12231;42.782;23.388;2022-07-23T01:07:05;95805.34;;;23.64;57.03
19590;BME280;12231;42.782;23.388;2022-07-23T01:09:32;95807.31;;;23.62;57.11
19590;BME280;12231;42.782;23.388;2022-07-23T01:11:59;95796.59;;;23.71;56.92
19590;BME280;12231;42.782;23.388;2022-07-23T01:14:24;95803.88;;;23.69;57.79
19590;BME280;12231;42.782;23.388;2022-07-23T01:16:50;95805.66;;;23.69;57.60
19590;BME280;12231;42.782;23.388;2022-07-23T01:19:16;95805.34;;;23.64;57.60
19590;BME280;12231;42.782;23.388;2022-07-23T01:21:44;95801.53;;;23.66;58.27
19590;BME280;12231;42.782;23.388;2022-07-23T01:24:11;95800.22;;;23.70;58.44
19590;BME280;12231;42.782;23.388;2022-07-23T01:26:38;95801.25;;;23.69;58.56
19590;BME280;12231;42.782;23.388;2022-07-23T01:29:04;95801.06;;;23.71;58.87
19590;BME280;12231;42.782;23.388;2022-07-23T01:31:30;95796.44;;;23.73;58.56
19590;BME280;12231;42.782;23.388;2022-07-23T01:33:56;95789.19;;;23.75;59.16
19590;BME280;12231;42.782;23.388;2022-07-23T01:36:22;95793.97;;;23.71;58.56
19590;BME280;12231;42.782;23.388;2022-07-23T01:38:47;95798.41;;;23.79;59.07
19590;BME280;12231;42.782;23.388;2022-07-23T01:41:13;95795.97;;;23.77;59.14
19590;BME280;12231;42.782;23.388;2022-07-23T01:43:38;95788.84;;;23.78;58.38
19590;BME280;12231;42.782;23.388;2022-07-23T01:46:04;95792.00;;;23.65;59.14
19590;BME280;12231;42.782;23.388;2022-07-23T01:48:29;95794.97;;;23.70;58.78
19590;BME280;12231;42.782;23.388;2022-07-23T01:50:55;95790.69;;;23.69;59.27
19590;BME280;12231;42.782;23.388;2022-07-23T01:53:20;95788.72;;;23.63;59.14
19590;BME280;12231;42.782;23.388;2022-07-23T01:55:46;95788.72;;;23.55;59.66
19590;BME280;12231;42.782;23.388;2022-07-23T01:58:12;95790.72;;;23.53;59.88
19590;BME280;12231;42.782;23.388;2022-07-23T02:00:37;95789.22;;;23.59;59.50
19590;BME280;12231;42.782;23.388;2022-07-23T02:03:03;95788.88;;;23.54;59.60
19590;BME280;12231;42.782;23.388;2022-07-23T02:05:28;95785.44;;;23.61;59.69
19590;BME280;12231;42.782;23.388;2022-07-23T02:07:55;95788.09;;;23.61;59.68
19590;BME280;12231;42.782;23.388;2022-07-23T02:10:21;95791.34;;;23.55;59.43
19590;BME280;12231;42.782;23.388;2022-07-23T02:12:47;95799.59;;;23.52;59.71
19590;BME280;12231;42.782;23.388;2022-07-23T02:15:12;95793.16;;;23.31;59.06
19590;BME280;12231;42.782;23.388;2022-07-23T02:17:38;95796.09;;;23.12;59.99
19590;BME280;12231;42.782;23.388;2022-07-23T02:20:05;95797.19;;;22.85;60.54
19590;BME280;12231;42.782;23.388;2022-07-23T02:22:31;95793.91;;;22.83;61.41
19590;BME280;12231;42.782;23.388;2022-07-23T02:24:56;95797.66;;;22.72;62.04
19590;BME280;12231;42.782;23.388;2022-07-23T02:27:22;95796.69;;;22.73;61.83
19590;BME280;12231;42.782;23.388;2022-07-23T02:29:48;95793.53;;;22.70;62.56
19590;BME280;12231;42.782;23.388;2022-07-23T02:32:14;95796.00;;;22.71;62.37
19590;BME280;12231;42.782;23.388;2022-07-23T02:34:39;95800.13;;;22.74;62.34
19590;BME280;12231;42.782;23.388;2022-07-23T02:37:05;95803.56;;;22.74;62.66
19590;BME280;12231;42.782;23.388;2022-07-23T02:39:30;95802.06;;;22.72;62.20
19590;BME280;12231;42.782;23.388;2022-07-23T02:41:55;95806.38;;;22.73;62.34
19590;BME280;12231;42.782;23.388;2022-07-23T02:44:21;95807.84;;;22.75;62.48
19590;BME280;12231;42.782;23.388;2022-07-23T02:46:46;95804.75;;;22.80;61.90
19590;BME280;12231;42.782;23.388;2022-07-23T02:49:12;95809.00;;;22.81;61.65
19590;BME280;12231;42.782;23.388;2022-07-23T02:51:37;95811.97;;;22.78;60.83
19590;BME280;12231;42.782;23.388;2022-07-23T02:54:03;95810.25;;;22.61;61.16
19590;BME280;12231;42.782;23.388;2022-07-23T02:56:28;95806.31;;;22.57;62.01
19590;BME280;12231;42.782;23.388;2022-07-23T02:58:54;95814.72;;;22.60;61.59
19590;BME280;12231;42.782;23.388;2022-07-23T03:01:19;95818.50;;;22.66;61.68
19590;BME280;12231;42.782;23.388;2022-07-23T03:03:45;95821.47;;;22.71;61.13
19590;BME280;12231;42.782;23.388;2022-07-23T03:06:10;95819.00;;;22.69;60.97
19590;BME280;12231;42.782;23.388;2022-07-23T03:08:35;95828.22;;;22.73;61.20
19590;BME280;12231;42.782;23.388;2022-07-23T03:11:01;95823.44;;;22.77;60.72
19590;BME280;12231;42.782;23.388;2022-07-23T03:13:26;95824.13;;;22.79;60.62
19590;BME280;12231;42.782;23.388;2022-07-23T03:15:52;95827.75;;;22.86;60.80
19590;BME280;12231;42.782;23.388;2022-07-23T03:18:18;95831.69;;;22.90;60.33
19590;BME280;12231;42.782;23.388;2022-07-23T03:20:43;95832.03;;;22.95;60.63
19590;BME280;12231;42.782;23.388;2022-07-23T03:23:08;95835.84;;;23.00;60.05
19590;BME280;12231;42.782;23.388;2022-07-23T03:25:34;95839.75;;;22.88;60.63
19590;BME280;12231;42.782;23.388;2022-07-23T03:27:59;95842.34;;;22.80;61.01
19590;BME280;12231;42.782;23.388;2022-07-23T03:30:25;95841.22;;;22.83;61.23
19590;BME280;12231;42.782;23.388;2022-07-23T03:32:50;95840.41;;;22.82;60.24
19590;BME280;12231;42.782;23.388;2022-07-23T03:35:16;95844.13;;;22.05;61.50
19590;BME280;12231;42.782;23.388;2022-07-23T03:37:41;95848.59;;;21.87;61.43
19590;BME280;12231;42.782;23.388;2022-07-23T03:40:07;95844.50;;;21.49;63.45
19590;BME280;12231;42.782;23.388;2022-07-23T03:42:33;95845.38;;;21.57;65.05
19590;BME280;12231;42.782;23.388;2022-07-23T03:44:58;95850.38;;;21.86;64.33
19590;BME280;12231;42.782;23.388;2022-07-23T03:47:24;95841.75;;;22.19;63.40
19590;BME280;12231;42.782;23.388;2022-07-23T03:49:49;95847.78;;;22.45;61.81
19590;BME280;12231;42.782;23.388;2022-07-23T03:52:15;95843.09;;;22.57;61.13
19590;BME280;12231;42.782;23.388;2022-07-23T03:54:40;95839.56;;;22.82;60.33
19590;BME280;12231;42.782;23.388;2022-07-23T03:57:06;95845.59;;;23.24;59.77
19590;BME280;12231;42.782;23.388;2022-07-23T03:59:32;95851.56;;;23.58;58.01
19590;BME280;12231;42.782;23.388;2022-07-23T04:01:57;95849.09;;;23.97;56.95
19590;BME280;12231;42.782;23.388;2022-07-23T04:04:22;95838.88;;;24.18;56.04
19590;BME280;12231;42.782;23.388;2022-07-23T04:06:48;95847.56;;;24.34;55.43
19590;BME280;12231;42.782;23.388;2022-07-23T04:09:13;95846.47;;;24.60;55.12
19590;BME280;12231;42.782;23.388;2022-07-23T04:11:39;95850.31;;;24.96;53.68
19590;BME280;12231;42.782;23.388;2022-07-23T04:14:04;95850.59;;;25.31;52.77
19590;BME280;12231;42.782;23.388;2022-07-23T04:16:30;95844.31;;;25.63;51.94
19590;BME280;12231;42.782;23.388;2022-07-23T04:18:56;95850.81;;;26.12;50.98
19590;BME280;12231;42.782;23.388;2022-07-23T04:21:23;95848.66;;;26.45;50.04
19590;BME280;12231;42.782;23.388;2022-07-23T04:23:49;95847.84;;;26.44;49.83
19590;BME280;12231;42.782;23.388;2022-07-23T04:26:14;95848.38;;;26.83;48.77
19590;BME280;12231;42.782;23.388;2022-07-23T04:28:40;95846.53;;;26.98;48.25
19590;BME280;12231;42.782;23.388;2022-07-23T04:31:05;95850.88;;;27.56;47.18
19590;BME280;12231;42.782;23.388;2022-07-23T04:33:30;95862.06;;;27.73;46.98
19590;BME280;12231;42.782;23.388;2022-07-23T04:35:56;95851.22;;;27.89;46.44
19590;BME280;12231;42.782;23.388;2022-07-23T04:38:22;95851.47;;;27.94;46.12
19590;BME280;12231;42.782;23.388;2022-07-23T04:40:47;95856.56;;;27.95;45.88
19590;BME280;12231;42.782;23.388;2022-07-23T04:43:12;95848.75;;;28.43;45.50
19590;BME280;12231;42.782;23.388;2022-07-23T04:45:38;95853.13;;;28.91;43.96
19590;BME280;12231;42.782;23.388;2022-07-23T04:48:04;95850.19;;;29.20;42.70
19590;BME280;12231;42.782;23.388;2022-07-23T04:50:29;95853.75;;;29.46;42.60
19590;BME280;12231;42.782;23.388;2022-07-23T04:52:55;95851.59;;;30.09;41.35
19590;BME280;12231;42.782;23.388;2022-07-23T04:55:20;95849.91;;;30.73;39.81
19590;BME280;12231;42.782;23.388;2022-07-23T04:57:45;95853.53;;;30.98;39.36
19590;BME280;12231;42.782;23.388;2022-07-23T05:00:11;95852.47;;;31.56;38.95
19590;BME280;12231;42.782;23.388;2022-07-23T05:02:37;95855.81;;;31.45;38.98
19590;BME280;12231;42.782;23.388;2022-07-23T05:05:02;95857.28;;;31.35;38.83
19590;BME280;12231;42.782;23.388;2022-07-23T05:07:28;95855.47;;;31.97;37.93
19590;BME280;12231;42.782;23.388;2022-07-23T05:09:53;95857.06;;;32.05;37.97
19590;BME280;12231;42.782;23.388;2022-07-23T05:12:19;95859.72;;;31.74;38.40
19590;BME280;12231;42.782;23.388;2022-07-23T05:14:44;95851.97;;;31.35;39.16
19590;BME280;12231;42.782;23.388;2022-07-23T05:17:09;95862.41;;;32.30;37.21
19590;BME280;12231;42.782;23.388;2022-07-23T05:19:35;95849.91;;;33.27;35.68
19590;BME280;12231;42.782;23.388;2022-07-23T05:22:01;95850.91;;;34.03;35.18
19590;BME280;12231;42.782;23.388;2022-07-23T05:24:27;95842.94;;;34.49;33.90
19590;BME280;12231;42.782;23.388;2022-07-23T05:26:52;95850.63;;;34.69;34.64
19590;BME280;12231;42.782;23.388;2022-07-23T05:29:18;95862.50;;;33.38;36.54
19590;BME280;12231;42.782;23.388;2022-07-23T05:31:43;95863.84;;;33.77;35.62
19590;BME280;12231;42.782;23.388;2022-07-23T05:34:09;95857.72;;;34.63;33.91
19590;BME280;12231;42.782;23.388;2022-07-23T05:36:34;95861.50;;;35.25;33.38
19590;BME280;12231;42.782;23.388;2022-07-23T05:39:00;95866.94;;;35.98;32.88
19590;BME280;12231;42.782;23.388;2022-07-23T05:41:25;95860.88;;;35.74;32.15
19590;BME280;12231;42.782;23.388;2022-07-23T05:43:51;95863.84;;;35.61;31.91
19590;BME280;12231;42.782;23.388;2022-07-23T05:46:16;95870.72;;;36.30;30.77
19590;BME280;12231;42.782;23.388;2022-07-23T05:48:42;95859.38;;;36.94;30.18
19590;BME280;12231;42.782;23.388;2022-07-23T05:51:08;95857.03;;;37.20;29.49
19590;BME280;12231;42.782;23.388;2022-07-23T05:53:34;95855.16;;;37.42;29.73
19590;BME280;12231;42.782;23.388;2022-07-23T05:56:00;95853.00;;;37.92;29.13
19590;BME280;12231;42.782;23.388;2022-07-23T05:58:26;95855.16;;;38.53;28.06
19590;BME280;12231;42.782;23.388;2022-07-23T06:00:52;95857.16;;;38.63;28.40
19590;BME280;12231;42.782;23.388;2022-07-23T06:03:17;95853.94;;;37.54;29.31
19590;BME280;12231;42.782;23.388;2022-07-23T06:05:43;95854.03;;;38.44;28.38
19590;BME280;12231;42.782;23.388;2022-07-23T06:08:08;95858.75;;;38.59;27.50
19590;BME280;12231;42.782;23.388;2022-07-23T06:10:34;95851.31;;;39.27;26.79
19590;BME280;12231;42.782;23.388;2022-07-23T06:12:59;95854.31;;;39.41;26.21
19590;BME280;12231;42.782;23.388;2022-07-23T06:15:25;95852.66;;;39.25;26.82
19590;BME280;12231;42.782;23.388;2022-07-23T06:17:50;95845.97;;;39.37;26.31
19590;BME280;12231;42.782;23.388;2022-07-23T06:20:16;95839.81;;;39.00;26.51
19590;BME280;12231;42.782;23.388;2022-07-23T06:22:41;95845.81;;;38.61;26.59
19590;BME280;12231;42.782;23.388;2022-07-23T06:25:07;95845.22;;;38.95;25.91
19590;BME280;12231;42.782;23.388;2022-07-23T06:27:32;95843.16;;;39.12;26.29
19590;BME280;12231;42.782;23.388;2022-07-23T06:29:58;95845.59;;;38.35;26.19
19590;BME280;12231;42.782;23.388;2022-07-23T06:32:23;95843.69;;;38.04;26.87
19590;BME280;12231;42.782;23.388;2022-07-23T06:34:49;95848.00;;;39.10;26.46
19590;BME280;12231;42.782;23.388;2022-07-23T06:37:15;95837.13;;;39.47;25.77
19590;BME280;12231;42.782;23.388;2022-07-23T06:39:40;95837.59;;;39.39;25.90
19590;BME280;12231;42.782;23.388;2022-07-23T06:42:05;95848.34;;;37.61;28.28
19590;BME280;12231;42.782;23.388;2022-07-23T06:44:31;95838.94;;;37.85;28.26
19590;BME280;12231;42.782;23.388;2022-07-23T06:46:56;95837.59;;;39.39;27.33
19590;BME280;12231;42.782;23.388;2022-07-23T06:49:22;95848.63;;;35.95;31.55
19590;BME280;12231;42.782;23.388;2022-07-23T06:51:47;95826.28;;;38.49;28.29
19590;BME280;12231;42.782;23.388;2022-07-23T06:54:12;95823.47;;;38.33;28.18
19590;BME280;12231;42.782;23.388;2022-07-23T06:56:38;95821.31;;;37.72;28.42
19590;BME280;12231;42.782;23.388;2022-07-23T06:59:03;95830.22;;;37.51;29.37
19590;BME280;12231;42.782;23.388;2022-07-23T07:01:30;95828.66;;;36.90;29.83
19590;BME280;12231;42.782;23.388;2022-07-23T07:03:55;95834.72;;;37.94;27.69
19590;BME280;12231;42.782;23.388;2022-07-23T07:06:21;95824.88;;;38.78;28.00
19590;BME280;12231;42.782;23.388;2022-07-23T07:08:46;95827.28;;;38.69;26.93
19590;BME280;12231;42.782;23.388;2022-07-23T07:11:12;95824.34;;;39.42;26.48
19590;BME280;12231;42.782;23.388;2022-07-23T07:13:37;95821.50;;;39.02;26.11
19590;BME280;12231;42.782;23.388;2022-07-23T07:16:03;95826.16;;;40.29;25.33
19590;BME280;12231;42.782;23.388;2022-07-23T07:18:29;95816.22;;;41.28;24.23
19590;BME280;12231;42.782;23.388;2022-07-23T07:20:54;95825.44;;;39.41;26.10
19590;BME280;12231;42.782;23.388;2022-07-23T07:23:20;95819.88;;;40.99;24.68
19590;BME280;12231;42.782;23.388;2022-07-23T07:25:46;95807.06;;;42.45;22.64
19590;BME280;12231;42.782;23.388;2022-07-23T07:28:12;95806.63;;;42.38;23.64
19590;BME280;12231;42.782;23.388;2022-07-23T07:30:38;95806.13;;;41.54;24.01
19590;BME280;12231;42.782;23.388;2022-07-23T07:33:03;95796.94;;;42.84;23.64
19590;BME280;12231;42.782;23.388;2022-07-23T07:35:29;95807.25;;;42.25;24.21
19590;BME280;12231;42.782;23.388;2022-07-23T07:37:58;95802.28;;;42.66;23.44
19590;BME280;12231;42.782;23.388;2022-07-23T07:40:23;95806.78;;;42.47;23.03
19590;BME280;12231;42.782;23.388;2022-07-23T07:42:51;95805.13;;;42.51;23.47
19590;BME280;12231;42.782;23.388;2022-07-23T07:45:19;95801.56;;;40.30;25.44
19590;BME280;12231;42.782;23.388;2022-07-23T07:47:44;95796.53;;;41.71;23.15
19590;BME280;12231;42.782;23.388;2022-07-23T07:50:10;95799.06;;;39.79;25.91
19590;BME280;12231;42.782;23.388;2022-07-23T07:52:38;95793.34;;;40.90;25.51
19590;BME280;12231;42.782;23.388;2022-07-23T07:55:05;95788.34;;;39.12;26.87
19590;BME280;12231;42.782;23.388;2022-07-23T07:57:31;95783.97;;;40.53;25.91
19590;BME280;12231;42.782;23.388;2022-07-23T07:59:56;95794.72;;;38.12;27.77
19590;BME280;12231;42.782;23.388;2022-07-23T08:02:22;95790.47;;;39.87;25.20
19590;BME280;12231;42.782;23.388;2022-07-23T08:04:47;95789.38;;;40.08;25.46
19590;BME280;12231;42.782;23.388;2022-07-23T08:07:14;95792.22;;;37.69;28.79
19590;BME280;12231;42.782;23.388;2022-07-23T08:09:39;95780.28;;;41.08;24.87
19590;BME280;12231;42.782;23.388;2022-07-23T08:12:05;95784.06;;;42.66;22.02
19590;BME280;12231;42.782;23.388;2022-07-23T08:14:31;95776.97;;;42.75;22.90
19590;BME280;12231;42.782;23.388;2022-07-23T08:16:56;95773.28;;;44.06;21.41
19590;BME280;12231;42.782;23.388;2022-07-23T08:19:21;95777.66;;;43.52;20.73
19590;BME280;12231;42.782;23.388;2022-07-23T08:21:47;95780.09;;;41.48;23.16
19590;BME280;12231;42.782;23.388;2022-07-23T08:24:12;95776.69;;;42.72;22.11
19590;BME280;12231;42.782;23.388;2022-07-23T08:26:38;95768.72;;;44.66;20.41
19590;BME280;12231;42.782;23.388;2022-07-23T08:29:03;95771.50;;;44.47;20.81
19590;BME280;12231;42.782;23.388;2022-07-23T08:31:29;95756.75;;;45.21;20.38
19590;BME280;12231;42.782;23.388;2022-07-23T08:33:54;95754.75;;;45.13;20.58
19590;BME280;12231;42.782;23.388;2022-07-23T08:36:21;95756.63;;;43.76;22.11
19590;BME280;12231;42.782;23.388;2022-07-23T08:38:47;95757.66;;;43.43;22.78
19590;BME280;12231;42.782;23.388;2022-07-23T08:41:12;95765.72;;;44.68;21.94
19590;BME280;12231;42.782;23.388;2022-07-23T08:43:38;95755.59;;;45.85;20.57
19590;BME280;12231;42.782;23.388;2022-07-23T08:46:05;95753.44;;;46.70;19.99
19590;BME280;12231;42.782;23.388;2022-07-23T08:48:35;95746.75;;;45.79;20.64
19590;BME280;12231;42.782;23.388;2022-07-23T08:51:03;95754.88;;;46.68;19.72
19590;BME280;12231;42.782;23.388;2022-07-23T08:53:30;95745.59;;;47.17;19.57
19590;BME280;12231;42.782;23.388;2022-07-23T08:55:58;95747.59;;;47.93;19.35
19590;BME280;12231;42.782;23.388;2022-07-23T08:58:25;95739.72;;;47.57;17.72
19590;BME280;12231;42.782;23.388;2022-07-23T09:00:51;95734.13;;;47.96;18.54
19590;BME280;12231;42.782;23.388;2022-07-23T09:03:22;95738.63;;;48.64;16.76
19590;BME280;12231;42.782;23.388;2022-07-23T09:05:50;95731.38;;;49.56;16.92
19590;BME280;12231;42.782;23.388;2022-07-23T09:08:21;95736.06;;;48.97;17.03
19590;BME280;12231;42.782;23.388;2022-07-23T09:16:12;95728.94;;;48.12;18.90
19590;BME280;12231;42.782;23.388;2022-07-23T09:18:41;95726.31;;;47.22;18.51
19590;BME280;12231;42.782;23.388;2022-07-23T09:28:56;95727.53;;;43.95;22.98
19590;BME280;12231;42.782;23.388;2022-07-23T09:31:24;95723.53;;;41.41;24.35
19590;BME280;12231;42.782;23.388;2022-07-23T09:33:49;95715.50;;;42.61;22.83
19590;BME280;12231;42.782;23.388;2022-07-23T09:36:15;95716.44;;;41.89;23.23
19590;BME280;12231;42.782;23.388;2022-07-23T09:38:50;95710.19;;;41.60;23.13
19590;BME280;12231;42.782;23.388;2022-07-23T09:41:16;95712.19;;;41.39;24.21
19590;BME280;12231;42.782;23.388;2022-07-23T09:43:41;95703.25;;;42.63;22.64
19590;BME280;12231;42.782;23.388;2022-07-23T09:46:21;95705.25;;;42.00;23.60
19590;BME280;12231;42.782;23.388;2022-07-23T09:48:49;95709.03;;;41.99;23.91
19590;BME280;12231;42.782;23.388;2022-07-23T09:51:16;95701.25;;;41.54;22.16
19590;BME280;12231;42.782;23.388;2022-07-23T09:54:38;95693.44;;;41.86;22.95
19590;BME280;12231;42.782;23.388;2022-07-23T09:57:09;95697.78;;;39.76;24.49
19590;BME280;12231;42.782;23.388;2022-07-23T09:59:40;95691.97;;;41.65;22.88
19590;BME280;12231;42.782;23.388;2022-07-23T10:02:08;95683.09;;;42.69;21.34
19590;BME280;12231;42.782;23.388;2022-07-23T10:04:34;95674.53;;;43.60;20.46
19590;BME280;12231;42.782;23.388;2022-07-23T10:07:02;95668.44;;;41.94;21.77
19590;BME280;12231;42.782;23.388;2022-07-23T10:09:34;95674.69;;;40.59;22.70
19590;BME280;12231;42.782;23.388;2022-07-23T10:12:05;95662.94;;;41.99;21.88
19590;BME280;12231;42.782;23.388;2022-07-23T10:14:54;95670.09;;;38.89;25.42
19590;BME280;12231;42.782;23.388;2022-07-23T10:17:22;95661.75;;;38.90;26.30
19590;BME280;12231;42.782;23.388;2022-07-23T10:19:47;95667.72;;;40.23;24.37
19590;BME280;12231;42.782;23.388;2022-07-23T10:22:15;95661.44;;;41.16;22.92
19590;BME280;12231;42.782;23.388;2022-07-23T10:24:53;95662.66;;;38.54;24.17
19590;BME280;12231;42.782;23.388;2022-07-23T10:27:33;95657.47;;;39.04;24.54
19590;BME280;12231;42.782;23.388;2022-07-23T10:30:49;95653.31;;;38.72;24.75
19590;BME280;12231;42.782;23.388;2022-07-23T10:33:26;95649.28;;;38.84;25.17
19590;BME280;12231;42.782;23.388;2022-07-23T10:38:58;95637.06;;;38.05;25.32
19590;BME280;12231;42.782;23.388;2022-07-23T10:41:32;95635.72;;;38.02;24.75
19590;BME280;12231;42.782;23.388;2022-07-23T10:44:16;95639.97;;;39.27;24.25
19590;BME280;12231;42.782;23.388;2022-07-23T10:46:58;95631.59;;;39.89;24.11
19590;BME280;12231;42.782;23.388;2022-07-23T10:49:39;95628.16;;;40.57;23.02
19590;BME280;12231;42.782;23.388;2022-07-23T10:52:25;95629.59;;;40.39;23.46
19590;BME280;12231;42.782;23.388;2022-07-23T10:54:56;95629.28;;;41.05;22.40
19590;BME280;12231;42.782;23.388;2022-07-23T10:57:49;95626.22;;;39.58;23.23
19590;BME280;12231;42.782;23.388;2022-07-23T11:00:23;95614.25;;;40.15;21.79
19590;BME280;12231;42.782;23.388;2022-07-23T11:02:51;95615.84;;;40.21;22.45
19590;BME280;12231;42.782;23.388;2022-07-23T11:05:22;95611.09;;;39.88;22.33
19590;BME280;12231;42.782;23.388;2022-07-23T11:10:47;95606.22;;;39.29;23.34
19590;BME280;12231;42.782;23.388;2022-07-23T11:26:55;95591.47;;;37.93;24.03
19590;BME280;12231;42.782;23.388;2022-07-23T11:32:29;95592.66;;;38.84;22.79
19590;BME280;12231;42.782;23.388;2022-07-23T11:34:55;95590.03;;;39.59;21.97
19590;BME280;12231;42.782;23.388;2022-07-23T11:37:37;95577.88;;;39.42;22.29
19590;BME280;12231;42.782;23.388;2022-07-23T11:40:07;95576.47;;;39.85;21.74
19590;BME280;12231;42.782;23.388;2022-07-23T11:42:34;95575.94;;;39.83;21.11
19590;BME280;12231;42.782;23.388;2022-07-23T11:45:00;95578.69;;;39.02;22.31
19590;BME280;12231;42.782;23.388;2022-07-23T11:47:26;95582.91;;;38.68;21.78
19590;BME280;12231;42.782;23.388;2022-07-23T11:49:55;95563.84;;;39.55;20.87
19590;BME280;12231;42.782;23.388;2022-07-23T11:52:22;95563.22;;;39.98;20.16
19590;BME280;12231;42.782;23.388;2022-07-23T11:54:58;95560.84;;;39.36;21.61
19590;BME280;12231;42.782;23.388;2022-07-23T11:57:27;95558.84;;;38.42;21.91
19590;BME280;12231;42.782;23.388;2022-07-23T12:00:01;95567.19;;;38.45;21.36
19590;BME280;12231;42.782;23.388;2022-07-23T12:02:29;95559.22;;;38.80;21.38
19590;BME280;12231;42.782;23.388;2022-07-23T12:04:54;95563.03;;;39.14;20.70
19590;BME280;12231;42.782;23.388;2022-07-23T12:07:37;95557.38;;;39.36;21.40
19590;BME280;12231;42.782;23.388;2022-07-23T12:12:42;95554.66;;;39.36;19.94
19590;BME280;12231;42.782;23.388;2022-07-23T12:15:09;95551.75;;;40.26;19.03
19590;BME280;12231;42.782;23.388;2022-07-23T12:17:37;95545.97;;;40.97;18.67
19590;BME280;12231;42.782;23.388;2022-07-23T12:20:05;95541.50;;;41.11;18.29
19590;BME280;12231;42.782;23.388;2022-07-23T12:22:40;95542.59;;;40.76;17.32
19590;BME280;12231;42.782;23.388;2022-07-23T12:25:07;95541.03;;;40.60;17.89
19590;BME280;12231;42.782;23.388;2022-07-23T12:27:33;95535.56;;;40.70;18.57
19590;BME280;12231;42.782;23.388;2022-07-23T12:29:59;95534.97;;;39.45;19.65
19590;BME280;12231;42.782;23.388;2022-07-23T12:32:27;95535.75;;;38.91;20.30
19590;BME280;12231;42.782;23.388;2022-07-23T12:35:07;95531.72;;;39.58;19.68
19590;BME280;12231;42.782;23.388;2022-07-23T12:37:39;95534.06;;;39.75;19.17
19590;BME280;12231;42.782;23.388;2022-07-23T12:42:52;95522.69;;;39.93;18.59
19590;BME280;12231;42.782;23.388;2022-07-23T12:45:18;95523.78;;;39.92;18.37
19590;BME280;12231;42.782;23.388;2022-07-23T12:47:59;95518.78;;;40.24;19.60
19590;BME280;12231;42.782;23.388;2022-07-23T12:50:49;95516.19;;;40.04;19.44
19590;BME280;12231;42.782;23.388;2022-07-23T12:53:17;95518.31;;;40.66;17.74
19590;BME280;12231;42.782;23.388;2022-07-23T12:55:45;95518.00;;;40.72;17.57
19590;BME280;12231;42.782;23.388;2022-07-23T12:58:13;95514.69;;;39.63;18.78
19590;BME280;12231;42.782;23.388;2022-07-23T13:00:55;95512.28;;;39.46;16.64
19590;BME280;12231;42.782;23.388;2022-07-23T13:03:41;95511.91;;;39.83;16.97
19590;BME280;12231;42.782;23.388;2022-07-23T13:06:10;95508.09;;;40.04;16.62
19590;BME280;12231;42.782;23.388;2022-07-23T13:08:38;95507.00;;;40.54;16.32
19590;BME280;12231;42.782;23.388;2022-07-23T13:11:06;95503.53;;;39.90;16.01
19590;BME280;12231;42.782;23.388;2022-07-23T13:13:34;95498.75;;;39.67;16.01
19590;BME280;12231;42.782;23.388;2022-07-23T13:16:01;95501.78;;;40.19;16.30
19590;BME280;12231;42.782;23.388;2022-07-23T13:18:27;95502.13;;;40.56;14.75
19590;BME280;12231;42.782;23.388;2022-07-23T13:20:53;95499.50;;;41.18;15.83
19590;BME280;12231;42.782;23.388;2022-07-23T13:23:19;95500.28;;;41.52;14.79
19590;BME280;12231;42.782;23.388;2022-07-23T13:25:50;95496.28;;;41.73;15.00
19590;BME280;12231;42.782;23.388;2022-07-23T13:28:17;95503.06;;;39.62;15.84
19590;BME280;12231;42.782;23.388;2022-07-23T13:30:43;95503.69;;;39.14;15.80
19590;BME280;12231;42.782;23.388;2022-07-23T13:33:10;95494.91;;;39.88;15.19